sensor_id;sensor_type;location;lat;lon;timestamp;P1;durP1;ratioP1;P2;durP2;ratioP2
64738;SDS011;51175;51.186;0.276;2023-04-01T00:00:15;6.10;;;4.45;;
64738;SDS011;51175;51.186;0.276;2023-04-01T00:00:46;5.75;;;4.22;;
64738;SDS011;51175;51.186;0.276;2023-04-01T00:01:17;6.70;;;4.45;;
64738;SDS011;51175;51.186;0.276;2023-04-01T00:01:47;7.32;;;4.63;;
64738;SDS011;51175;51.186;0.276;2023-04-01T00:02:18;5.60;;;3.95;;
64738;SDS011;51175;51.186;0.276;2023-04-01T00:02:48;6.75;;;4.25;;
64738;SDS011;51175;51.186;0.276;2023-04-01T00:03:20;4.80;;;4.03;;
64738;SDS011;51175;51.186;0.276;2023-04-01T00:03:51;5.57;;;3.88;;
64738;SDS011;51175;51.186;0.276;2023-04-01T00:04:21;6.22;;;4.50;;
64738;SDS011;51175;51.186;0.276;2023-04-01T00:04:52;6.13;;;4.60;;
64738;SDS011;51175;51.186;0.276;2023-04-01T00:05:22;7.72;;;4.60;;
64738;SDS011;51175;51.186;0.276;2023-04-01T00:05:55;6.88;;;5.00;;
64738;SDS011;51175;51.186;0.276;2023-04-01T00:06:26;7.18;;;5.38;;
64738;SDS011;51175;51.186;0.276;2023-04-01T00:06:56;6.95;;;5.25;;
64738;SDS011;51175;51.186;0.276;2023-04-01T00:07:27;5.82;;;5.20;;
64738;SDS011;51175;51.186;0.276;2023-04-01T00:07:57;6.25;;;4.72;;
64738;SDS011;51175;51.186;0.276;2023-04-01T00:08:28;8.93;;;5.40;;
64738;SDS011;51175;51.186;0.276;2023-04-01T00:08:58;6.35;;;4.03;;
64738;SDS011;51175;51.186;0.276;2023-04-01T00:09:29;5.35;;;4.20;;
64738;SDS011;51175;51.186;0.276;2023-04-01T00:10:00;5.20;;;4.60;;
64738;SDS011;51175;51.186;0.276;2023-04-01T00:10:30;5.10;;;4.00;;
64738;SDS011;51175;51.186;0.276;2023-04-01T00:11:00;6.03;;;4.28;;
64738;SDS011;51175;51.186;0.276;2023-04-01T00:11:32;5.75;;;4.00;;
64738;SDS011;51175;51.186;0.276;2023-04-01T00:12:02;5.63;;;4.18;;
64738;SDS011;51175;51.186;0.276;2023-04-01T00:12:33;6.40;;;4.65;;
64738;SDS011;51175;51.186;0.276;2023-04-01T00:13:05;5.03;;;3.83;;
64738;SDS011;51175;51.186;0.276;2023-04-01T00:13:35;5.22;;;4.22;;
64738;SDS011;51175;51.186;0.276;2023-04-01T00:14:06;5.75;;;4.20;;
64738;SDS011;51175;51.186;0.276;2023-04-01T00:14:37;6.82;;;4.28;;
64738;SDS011;51175;51.186;0.276;2023-04-01T00:15:08;5.45;;;4.50;;
64738;SDS011;51175;51.186;0.276;2023-04-01T00:15:40;5.97;;;4.90;;
64738;SDS011;51175;51.186;0.276;2023-04-01T00:16:12;5.70;;;4.30;;
64738;SDS011;51175;51.186;0.276;2023-04-01T00:16:43;5.40;;;4.00;;
64738;SDS011;51175;51.186;0.276;2023-04-01T00:17:13;4.68;;;4.03;;
64738;SDS011;51175;51.186;0.276;2023-04-01T00:17:44;8.02;;;5.18;;
64738;SDS011;51175;51.186;0.276;2023-04-01T00:18:15;6.10;;;4.30;;
64738;SDS011;51175;51.186;0.276;2023-04-01T00:18:46;6.30;;;4.68;;
64738;SDS011;51175;51.186;0.276;2023-04-01T00:19:17;6.13;;;4.38;;
64738;SDS011;51175;51.186;0.276;2023-04-01T00:19:47;5.70;;;4.32;;
64738;SDS011;51175;51.186;0.276;2023-04-01T00:20:18;6.22;;;4.40;;
64738;SDS011;51175;51.186;0.276;2023-04-01T00:20:49;7.03;;;4.88;;
64738;SDS011;51175;51.186;0.276;2023-04-01T00:21:21;5.40;;;4.47;;
64738;SDS011;51175;51.186;0.276;2023-04-01T00:21:52;6.00;;;4.60;;
64738;SDS011;51175;51.186;0.276;2023-04-01T00:22:23;6.88;;;4.38;;
64738;SDS011;51175;51.186;0.276;2023-04-01T00:22:54;5.13;;;4.53;;
64738;SDS011;51175;51.186;0.276;2023-04-01T00:23:25;7.03;;;4.47;;
64738;SDS011;51175;51.186;0.276;2023-04-01T00:23:56;5.30;;;4.13;;
64738;SDS011;51175;51.186;0.276;2023-04-01T00:24:26;5.22;;;4.40;;
64738;SDS011;51175;51.186;0.276;2023-04-01T00:24:56;7.15;;;4.57;;
64738;SDS011;51175;51.186;0.276;2023-04-01T00:25:27;6.15;;;4.32;;
64738;SDS011;51175;51.186;0.276;2023-04-01T00:25:59;6.32;;;4.75;;
64738;SDS011;51175;51.186;0.276;2023-04-01T00:26:30;5.85;;;4.25;;
64738;SDS011;51175;51.186;0.276;2023-04-01T00:27:01;5.88;;;4.60;;
64738;SDS011;51175;51.186;0.276;2023-04-01T00:27:31;4.78;;;4.28;;
64738;SDS011;51175;51.186;0.276;2023-04-01T00:28:01;6.65;;;4.97;;
64738;SDS011;51175;51.186;0.276;2023-04-01T00:28:33;5.72;;;4.63;;
64738;SDS011;51175;51.186;0.276;2023-04-01T00:29:05;6.70;;;4.80;;
64738;SDS011;51175;51.186;0.276;2023-04-01T00:29:35;6.78;;;4.50;;
64738;SDS011;51175;51.186;0.276;2023-04-01T00:30:06;5.65;;;4.07;;
64738;SDS011;51175;51.186;0.276;2023-04-01T00:30:37;7.00;;;4.55;;
64738;SDS011;51175;51.186;0.276;2023-04-01T00:31:08;5.55;;;4.00;;
64738;SDS011;51175;51.186;0.276;2023-04-01T00:31:40;6.95;;;5.03;;
64738;SDS011;51175;51.186;0.276;2023-04-01T00:32:10;5.20;;;4.70;;
64738;SDS011;51175;51.186;0.276;2023-04-01T00:32:41;8.18;;;5.10;;
64738;SDS011;51175;51.186;0.276;2023-04-01T00:33:11;6.13;;;4.90;;
64738;SDS011;51175;51.186;0.276;2023-04-01T00:33:42;7.28;;;4.20;;
64738;SDS011;51175;51.186;0.276;2023-04-01T00:34:12;5.68;;;4.57;;
64738;SDS011;51175;51.186;0.276;2023-04-01T00:34:42;5.53;;;4.40;;
64738;SDS011;51175;51.186;0.276;2023-04-01T00:35:14;6.85;;;4.82;;
64738;SDS011;51175;51.186;0.276;2023-04-01T00:35:44;4.68;;;4.18;;
64738;SDS011;51175;51.186;0.276;2023-04-01T00:36:16;5.25;;;4.20;;
64738;SDS011;51175;51.186;0.276;2023-04-01T00:36:49;6.28;;;4.20;;
64738;SDS011;51175;51.186;0.276;2023-04-01T00:37:20;6.05;;;4.53;;
64738;SDS011;51175;51.186;0.276;2023-04-01T00:37:51;5.70;;;4.35;;
64738;SDS011;51175;51.186;0.276;2023-04-01T00:38:21;7.28;;;4.88;;
64738;SDS011;51175;51.186;0.276;2023-04-01T00:38:51;5.45;;;4.45;;
64738;SDS011;51175;51.186;0.276;2023-04-01T00:39:22;6.90;;;4.43;;
64738;SDS011;51175;51.186;0.276;2023-04-01T00:39:52;11.48;;;5.30;;
64738;SDS011;51175;51.186;0.276;2023-04-01T00:40:56;7.18;;;4.28;;
64738;SDS011;51175;51.186;0.276;2023-04-01T00:41:19;8.02;;;5.30;;
64738;SDS011;51175;51.186;0.276;2023-04-01T00:41:51;6.10;;;4.25;;
64738;SDS011;51175;51.186;0.276;2023-04-01T00:42:21;5.53;;;4.20;;
64738;SDS011;51175;51.186;0.276;2023-04-01T00:42:51;6.63;;;4.10;;
64738;SDS011;51175;51.186;0.276;2023-04-01T00:43:22;6.70;;;5.13;;
64738;SDS011;51175;51.186;0.276;2023-04-01T00:44:11;6.85;;;4.50;;
64738;SDS011;51175;51.186;0.276;2023-04-01T00:44:51;7.20;;;4.18;;
64738;SDS011;51175;51.186;0.276;2023-04-01T00:45:36;5.82;;;4.70;;
64738;SDS011;51175;51.186;0.276;2023-04-01T00:46:08;6.78;;;4.40;;
64738;SDS011;51175;51.186;0.276;2023-04-01T00:46:38;5.63;;;4.43;;
64738;SDS011;51175;51.186;0.276;2023-04-01T00:47:08;6.05;;;4.72;;
64738;SDS011;51175;51.186;0.276;2023-04-01T00:47:39;6.80;;;4.90;;
64738;SDS011;51175;51.186;0.276;2023-04-01T00:48:53;4.43;;;3.95;;
64738;SDS011;51175;51.186;0.276;2023-04-01T00:50:26;6.68;;;5.05;;
64738;SDS011;51175;51.186;0.276;2023-04-01T00:51:01;5.82;;;4.82;;
64738;SDS011;51175;51.186;0.276;2023-04-01T00:51:34;7.10;;;5.18;;
64738;SDS011;51175;51.186;0.276;2023-04-01T00:52:08;5.80;;;4.18;;
64738;SDS011;51175;51.186;0.276;2023-04-01T00:52:42;6.65;;;5.47;;
64738;SDS011;51175;51.186;0.276;2023-04-01T00:53:13;5.93;;;4.57;;
64738;SDS011;51175;51.186;0.276;2023-04-01T00:53:45;7.90;;;5.18;;
64738;SDS011;51175;51.186;0.276;2023-04-01T00:54:18;5.35;;;4.22;;
64738;SDS011;51175;51.186;0.276;2023-04-01T00:54:55;6.28;;;4.95;;
64738;SDS011;51175;51.186;0.276;2023-04-01T00:55:29;5.90;;;4.20;;
64738;SDS011;51175;51.186;0.276;2023-04-01T00:56:12;6.15;;;4.70;;
64738;SDS011;51175;51.186;0.276;2023-04-01T00:56:49;5.78;;;4.60;;
64738;SDS011;51175;51.186;0.276;2023-04-01T00:57:32;6.47;;;4.60;;
64738;SDS011;51175;51.186;0.276;2023-04-01T00:58:07;5.97;;;4.57;;
64738;SDS011;51175;51.186;0.276;2023-04-01T00:58:48;5.93;;;4.70;;
64738;SDS011;51175;51.186;0.276;2023-04-01T00:59:23;6.85;;;4.47;;
64738;SDS011;51175;51.186;0.276;2023-04-01T00:59:56;6.70;;;5.18;;
64738;SDS011;51175;51.186;0.276;2023-04-01T01:00:27;7.35;;;4.75;;
64738;SDS011;51175;51.186;0.276;2023-04-01T01:00:58;7.63;;;4.65;;
64738;SDS011;51175;51.186;0.276;2023-04-01T01:01:30;8.25;;;5.07;;
64738;SDS011;51175;51.186;0.276;2023-04-01T01:02:02;6.18;;;4.55;;
64738;SDS011;51175;51.186;0.276;2023-04-01T01:02:36;7.03;;;5.00;;
64738;SDS011;51175;51.186;0.276;2023-04-01T01:03:07;6.07;;;4.70;;
64738;SDS011;51175;51.186;0.276;2023-04-01T01:03:37;6.85;;;4.50;;
64738;SDS011;51175;51.186;0.276;2023-04-01T01:04:20;7.00;;;4.60;;
64738;SDS011;51175;51.186;0.276;2023-04-01T01:05:00;5.57;;;4.40;;
64738;SDS011;51175;51.186;0.276;2023-04-01T01:05:46;4.95;;;4.30;;
64738;SDS011;51175;51.186;0.276;2023-04-01T01:07:47;5.53;;;4.30;;
64738;SDS011;51175;51.186;0.276;2023-04-01T01:09:12;4.50;;;3.67;;
64738;SDS011;51175;51.186;0.276;2023-04-01T01:10:41;6.63;;;4.18;;
64738;SDS011;51175;51.186;0.276;2023-04-01T01:11:20;4.90;;;4.10;;
64738;SDS011;51175;51.186;0.276;2023-04-01T01:12:55;4.90;;;3.78;;
64738;SDS011;51175;51.186;0.276;2023-04-01T01:13:43;5.22;;;4.00;;
64738;SDS011;51175;51.186;0.276;2023-04-01T01:14:28;5.88;;;4.38;;
64738;SDS011;51175;51.186;0.276;2023-04-01T01:16:25;4.65;;;4.03;;
64738;SDS011;51175;51.186;0.276;2023-04-01T01:17:02;5.63;;;3.85;;
64738;SDS011;51175;51.186;0.276;2023-04-01T01:19:31;5.07;;;3.92;;
64738;SDS011;51175;51.186;0.276;2023-04-01T01:21:06;5.30;;;4.45;;
64738;SDS011;51175;51.186;0.276;2023-04-01T01:24:42;4.47;;;4.00;;
64738;SDS011;51175;51.186;0.276;2023-04-01T01:27:02;4.70;;;3.60;;
64738;SDS011;51175;51.186;0.276;2023-04-01T01:27:37;4.20;;;3.40;;
64738;SDS011;51175;51.186;0.276;2023-04-01T01:33:24;4.97;;;4.25;;
64738;SDS011;51175;51.186;0.276;2023-04-01T01:34:14;4.82;;;3.92;;
64738;SDS011;51175;51.186;0.276;2023-04-01T01:36:02;4.88;;;4.38;;
64738;SDS011;51175;51.186;0.276;2023-04-01T01:36:37;5.25;;;3.92;;
64738;SDS011;51175;51.186;0.276;2023-04-01T01:37:14;5.55;;;4.30;;
64738;SDS011;51175;51.186;0.276;2023-04-01T01:37:47;5.38;;;3.90;;
64738;SDS011;51175;51.186;0.276;2023-04-01T01:38:24;4.05;;;3.65;;
64738;SDS011;51175;51.186;0.276;2023-04-01T01:38:59;5.88;;;3.67;;
64738;SDS011;51175;51.186;0.276;2023-04-01T01:39:30;5.65;;;3.85;;
64738;SDS011;51175;51.186;0.276;2023-04-01T01:40:05;4.85;;;3.95;;
64738;SDS011;51175;51.186;0.276;2023-04-01T01:40:37;5.90;;;5.13;;
64738;SDS011;51175;51.186;0.276;2023-04-01T01:41:11;4.70;;;4.05;;
64738;SDS011;51175;51.186;0.276;2023-04-01T01:41:46;5.50;;;4.05;;
64738;SDS011;51175;51.186;0.276;2023-04-01T01:42:19;6.30;;;4.30;;
64738;SDS011;51175;51.186;0.276;2023-04-01T01:42:53;4.93;;;3.42;;
64738;SDS011;51175;51.186;0.276;2023-04-01T01:43:33;4.47;;;4.05;;
64738;SDS011;51175;51.186;0.276;2023-04-01T01:44:09;5.15;;;4.55;;
64738;SDS011;51175;51.186;0.276;2023-04-01T01:44:43;5.18;;;3.92;;
64738;SDS011;51175;51.186;0.276;2023-04-01T01:45:16;4.93;;;4.22;;
64738;SDS011;51175;51.186;0.276;2023-04-01T01:45:57;6.65;;;4.78;;
64738;SDS011;51175;51.186;0.276;2023-04-01T01:46:31;5.80;;;4.00;;
64738;SDS011;51175;51.186;0.276;2023-04-01T01:47:02;6.32;;;3.97;;
64738;SDS011;51175;51.186;0.276;2023-04-01T01:47:33;6.22;;;4.53;;
64738;SDS011;51175;51.186;0.276;2023-04-01T01:48:05;6.07;;;4.43;;
64738;SDS011;51175;51.186;0.276;2023-04-01T01:48:39;4.88;;;4.03;;
64738;SDS011;51175;51.186;0.276;2023-04-01T01:49:12;5.90;;;4.60;;
64738;SDS011;51175;51.186;0.276;2023-04-01T01:49:46;5.88;;;4.05;;
64738;SDS011;51175;51.186;0.276;2023-04-01T01:50:17;5.78;;;5.03;;
64738;SDS011;51175;51.186;0.276;2023-04-01T01:50:49;5.53;;;4.13;;
64738;SDS011;51175;51.186;0.276;2023-04-01T01:51:21;5.70;;;3.83;;
64738;SDS011;51175;51.186;0.276;2023-04-01T01:51:52;5.25;;;4.22;;
64738;SDS011;51175;51.186;0.276;2023-04-01T01:52:23;4.00;;;3.50;;
64738;SDS011;51175;51.186;0.276;2023-04-01T01:53:07;4.57;;;3.97;;
64738;SDS011;51175;51.186;0.276;2023-04-01T01:53:40;6.47;;;4.75;;
64738;SDS011;51175;51.186;0.276;2023-04-01T01:54:14;5.80;;;4.57;;
64738;SDS011;51175;51.186;0.276;2023-04-01T01:54:49;5.60;;;3.78;;
64738;SDS011;51175;51.186;0.276;2023-04-01T01:55:26;4.55;;;3.47;;
64738;SDS011;51175;51.186;0.276;2023-04-01T01:56:04;5.45;;;4.07;;
64738;SDS011;51175;51.186;0.276;2023-04-01T01:56:35;5.18;;;4.65;;
64738;SDS011;51175;51.186;0.276;2023-04-01T01:57:07;5.75;;;4.28;;
64738;SDS011;51175;51.186;0.276;2023-04-01T01:57:40;5.25;;;4.20;;
64738;SDS011;51175;51.186;0.276;2023-04-01T01:58:16;5.45;;;4.60;;
64738;SDS011;51175;51.186;0.276;2023-04-01T01:58:52;5.55;;;4.13;;
64738;SDS011;51175;51.186;0.276;2023-04-01T01:59:27;6.20;;;4.03;;
64738;SDS011;51175;51.186;0.276;2023-04-01T02:00:08;6.20;;;4.97;;
64738;SDS011;51175;51.186;0.276;2023-04-01T02:00:44;4.70;;;3.88;;
64738;SDS011;51175;51.186;0.276;2023-04-01T02:01:20;6.43;;;4.72;;
64738;SDS011;51175;51.186;0.276;2023-04-01T02:01:55;5.00;;;4.20;;
64738;SDS011;51175;51.186;0.276;2023-04-01T02:02:26;4.88;;;4.20;;
64738;SDS011;51175;51.186;0.276;2023-04-01T02:03:01;5.88;;;4.63;;
64738;SDS011;51175;51.186;0.276;2023-04-01T02:03:34;5.57;;;4.45;;
64738;SDS011;51175;51.186;0.276;2023-04-01T02:04:07;5.32;;;4.35;;
64738;SDS011;51175;51.186;0.276;2023-04-01T02:04:40;4.80;;;4.22;;
64738;SDS011;51175;51.186;0.276;2023-04-01T02:05:15;4.88;;;4.38;;
64738;SDS011;51175;51.186;0.276;2023-04-01T02:05:49;4.72;;;3.80;;
64738;SDS011;51175;51.186;0.276;2023-04-01T02:06:23;4.82;;;4.32;;
64738;SDS011;51175;51.186;0.276;2023-04-01T02:06:58;6.63;;;4.38;;
64738;SDS011;51175;51.186;0.276;2023-04-01T02:07:32;7.13;;;4.35;;
64738;SDS011;51175;51.186;0.276;2023-04-01T02:08:16;4.97;;;4.50;;
64738;SDS011;51175;51.186;0.276;2023-04-01T02:08:56;5.47;;;4.28;;
64738;SDS011;51175;51.186;0.276;2023-04-01T02:09:31;8.00;;;4.20;;
64738;SDS011;51175;51.186;0.276;2023-04-01T02:10:03;6.20;;;4.10;;
64738;SDS011;51175;51.186;0.276;2023-04-01T02:10:36;4.75;;;4.20;;
64738;SDS011;51175;51.186;0.276;2023-04-01T02:11:11;5.38;;;4.75;;
64738;SDS011;51175;51.186;0.276;2023-04-01T02:12:46;5.90;;;4.55;;
64738;SDS011;51175;51.186;0.276;2023-04-01T02:13:21;4.95;;;4.43;;
64738;SDS011;51175;51.186;0.276;2023-04-01T02:14:05;5.28;;;4.50;;
64738;SDS011;51175;51.186;0.276;2023-04-01T02:15:17;5.80;;;4.40;;
64738;SDS011;51175;51.186;0.276;2023-04-01T02:15:50;6.05;;;4.45;;
64738;SDS011;51175;51.186;0.276;2023-04-01T02:16:45;4.90;;;3.90;;
64738;SDS011;51175;51.186;0.276;2023-04-01T02:17:26;5.88;;;4.55;;
64738;SDS011;51175;51.186;0.276;2023-04-01T02:17:59;5.00;;;4.43;;
64738;SDS011;51175;51.186;0.276;2023-04-01T02:18:30;5.22;;;4.10;;
64738;SDS011;51175;51.186;0.276;2023-04-01T02:19:05;5.38;;;4.57;;
64738;SDS011;51175;51.186;0.276;2023-04-01T02:19:39;5.85;;;4.57;;
64738;SDS011;51175;51.186;0.276;2023-04-01T02:20:17;6.82;;;4.55;;
64738;SDS011;51175;51.186;0.276;2023-04-01T02:20:51;5.28;;;4.35;;
64738;SDS011;51175;51.186;0.276;2023-04-01T02:21:22;6.03;;;4.93;;
64738;SDS011;51175;51.186;0.276;2023-04-01T02:21:59;5.63;;;4.30;;
64738;SDS011;51175;51.186;0.276;2023-04-01T02:22:33;5.70;;;4.43;;
64738;SDS011;51175;51.186;0.276;2023-04-01T02:23:07;4.65;;;3.88;;
64738;SDS011;51175;51.186;0.276;2023-04-01T02:23:39;7.00;;;4.97;;
64738;SDS011;51175;51.186;0.276;2023-04-01T02:24:12;5.68;;;4.50;;
64738;SDS011;51175;51.186;0.276;2023-04-01T02:24:45;5.72;;;5.13;;
64738;SDS011;51175;51.186;0.276;2023-04-01T02:25:20;6.07;;;4.95;;
64738;SDS011;51175;51.186;0.276;2023-04-01T02:25:55;5.30;;;4.15;;
64738;SDS011;51175;51.186;0.276;2023-04-01T02:26:26;6.38;;;4.25;;
64738;SDS011;51175;51.186;0.276;2023-04-01T02:26:57;5.50;;;4.47;;
64738;SDS011;51175;51.186;0.276;2023-04-01T02:27:27;5.40;;;4.47;;
64738;SDS011;51175;51.186;0.276;2023-04-01T02:27:58;4.93;;;3.78;;
64738;SDS011;51175;51.186;0.276;2023-04-01T02:28:30;5.70;;;4.43;;
64738;SDS011;51175;51.186;0.276;2023-04-01T02:29:02;6.60;;;4.80;;
64738;SDS011;51175;51.186;0.276;2023-04-01T02:29:35;4.97;;;4.22;;
64738;SDS011;51175;51.186;0.276;2023-04-01T02:30:06;5.25;;;4.05;;
64738;SDS011;51175;51.186;0.276;2023-04-01T02:30:37;4.78;;;4.03;;
64738;SDS011;51175;51.186;0.276;2023-04-01T02:31:10;5.47;;;4.40;;
64738;SDS011;51175;51.186;0.276;2023-04-01T02:31:42;6.20;;;5.38;;
64738;SDS011;51175;51.186;0.276;2023-04-01T02:32:13;5.75;;;4.55;;
64738;SDS011;51175;51.186;0.276;2023-04-01T02:32:45;5.18;;;4.50;;
64738;SDS011;51175;51.186;0.276;2023-04-01T02:33:17;5.45;;;4.30;;
64738;SDS011;51175;51.186;0.276;2023-04-01T02:33:49;3.88;;;3.53;;
64738;SDS011;51175;51.186;0.276;2023-04-01T02:34:20;4.97;;;4.47;;
64738;SDS011;51175;51.186;0.276;2023-04-01T02:34:52;4.57;;;3.78;;
64738;SDS011;51175;51.186;0.276;2023-04-01T02:35:23;5.18;;;4.03;;
64738;SDS011;51175;51.186;0.276;2023-04-01T02:35:55;6.00;;;4.18;;
64738;SDS011;51175;51.186;0.276;2023-04-01T02:36:26;4.97;;;4.43;;
64738;SDS011;51175;51.186;0.276;2023-04-01T02:36:57;4.75;;;4.25;;
64738;SDS011;51175;51.186;0.276;2023-04-01T02:37:27;7.15;;;4.18;;
64738;SDS011;51175;51.186;0.276;2023-04-01T02:37:58;4.97;;;4.28;;
64738;SDS011;51175;51.186;0.276;2023-04-01T02:38:28;5.32;;;4.47;;
64738;SDS011;51175;51.186;0.276;2023-04-01T02:38:59;7.00;;;4.80;;
64738;SDS011;51175;51.186;0.276;2023-04-01T02:39:32;4.32;;;3.92;;
64738;SDS011;51175;51.186;0.276;2023-04-01T02:40:03;4.65;;;3.70;;
64738;SDS011;51175;51.186;0.276;2023-04-01T02:40:41;6.15;;;4.28;;
64738;SDS011;51175;51.186;0.276;2023-04-01T02:41:13;5.15;;;4.13;;
64738;SDS011;51175;51.186;0.276;2023-04-01T02:41:44;5.82;;;3.67;;
64738;SDS011;51175;51.186;0.276;2023-04-01T02:42:15;6.25;;;4.68;;
64738;SDS011;51175;51.186;0.276;2023-04-01T02:42:45;5.03;;;4.50;;
64738;SDS011;51175;51.186;0.276;2023-04-01T02:43:16;4.82;;;4.22;;
64738;SDS011;51175;51.186;0.276;2023-04-01T02:43:47;4.80;;;4.20;;
64738;SDS011;51175;51.186;0.276;2023-04-01T02:44:18;5.05;;;4.25;;
64738;SDS011;51175;51.186;0.276;2023-04-01T02:44:49;5.18;;;3.95;;
64738;SDS011;51175;51.186;0.276;2023-04-01T02:45:19;5.15;;;4.65;;
64738;SDS011;51175;51.186;0.276;2023-04-01T02:45:49;5.13;;;3.80;;
64738;SDS011;51175;51.186;0.276;2023-04-01T02:46:20;7.85;;;5.28;;
64738;SDS011;51175;51.186;0.276;2023-04-01T02:46:50;5.65;;;4.68;;
64738;SDS011;51175;51.186;0.276;2023-04-01T02:47:20;5.47;;;4.43;;
64738;SDS011;51175;51.186;0.276;2023-04-01T02:47:51;5.10;;;4.32;;
64738;SDS011;51175;51.186;0.276;2023-04-01T02:48:21;6.50;;;4.10;;
64738;SDS011;51175;51.186;0.276;2023-04-01T02:48:51;4.38;;;3.78;;
64738;SDS011;51175;51.186;0.276;2023-04-01T02:49:23;4.72;;;3.85;;
64738;SDS011;51175;51.186;0.276;2023-04-01T02:49:54;4.88;;;4.25;;
64738;SDS011;51175;51.186;0.276;2023-04-01T02:50:27;4.97;;;3.88;;
64738;SDS011;51175;51.186;0.276;2023-04-01T02:50:58;5.75;;;4.43;;
64738;SDS011;51175;51.186;0.276;2023-04-01T02:51:28;5.25;;;4.50;;
64738;SDS011;51175;51.186;0.276;2023-04-01T02:51:59;5.18;;;3.97;;
64738;SDS011;51175;51.186;0.276;2023-04-01T02:52:29;4.22;;;3.63;;
64738;SDS011;51175;51.186;0.276;2023-04-01T02:53:00;6.45;;;4.38;;
64738;SDS011;51175;51.186;0.276;2023-04-01T02:53:33;4.13;;;3.72;;
64738;SDS011;51175;51.186;0.276;2023-04-01T02:54:04;4.20;;;3.45;;
64738;SDS011;51175;51.186;0.276;2023-04-01T02:54:34;5.68;;;3.53;;
64738;SDS011;51175;51.186;0.276;2023-04-01T02:55:06;4.10;;;3.55;;
64738;SDS011;51175;51.186;0.276;2023-04-01T02:55:37;4.10;;;3.35;;
64738;SDS011;51175;51.186;0.276;2023-04-01T02:56:07;5.20;;;4.13;;
64738;SDS011;51175;51.186;0.276;2023-04-01T02:56:38;5.30;;;3.92;;
64738;SDS011;51175;51.186;0.276;2023-04-01T02:57:08;4.75;;;3.95;;
64738;SDS011;51175;51.186;0.276;2023-04-01T02:57:38;3.88;;;3.47;;
64738;SDS011;51175;51.186;0.276;2023-04-01T02:58:09;6.03;;;4.03;;
64738;SDS011;51175;51.186;0.276;2023-04-01T02:58:40;3.50;;;3.20;;
64738;SDS011;51175;51.186;0.276;2023-04-01T02:59:10;4.75;;;3.30;;
64738;SDS011;51175;51.186;0.276;2023-04-01T02:59:40;4.32;;;3.72;;
64738;SDS011;51175;51.186;0.276;2023-04-01T03:00:11;4.03;;;3.25;;
64738;SDS011;51175;51.186;0.276;2023-04-01T03:00:42;5.05;;;3.47;;
64738;SDS011;51175;51.186;0.276;2023-04-01T03:01:13;4.47;;;3.25;;
64738;SDS011;51175;51.186;0.276;2023-04-01T03:01:43;4.13;;;3.47;;
64738;SDS011;51175;51.186;0.276;2023-04-01T03:02:14;4.32;;;3.50;;
64738;SDS011;51175;51.186;0.276;2023-04-01T03:02:44;4.50;;;3.10;;
64738;SDS011;51175;51.186;0.276;2023-04-01T03:03:15;4.40;;;3.47;;
64738;SDS011;51175;51.186;0.276;2023-04-01T03:03:45;3.55;;;2.97;;
64738;SDS011;51175;51.186;0.276;2023-04-01T03:04:15;3.42;;;2.50;;
64738;SDS011;51175;51.186;0.276;2023-04-01T03:04:46;3.78;;;2.65;;
64738;SDS011;51175;51.186;0.276;2023-04-01T03:05:16;2.95;;;2.65;;
64738;SDS011;51175;51.186;0.276;2023-04-01T03:05:46;5.63;;;3.33;;
64738;SDS011;51175;51.186;0.276;2023-04-01T03:06:17;3.70;;;3.15;;
64738;SDS011;51175;51.186;0.276;2023-04-01T03:06:48;4.70;;;3.30;;
64738;SDS011;51175;51.186;0.276;2023-04-01T03:07:18;3.53;;;2.90;;
64738;SDS011;51175;51.186;0.276;2023-04-01T03:07:48;3.47;;;2.85;;
64738;SDS011;51175;51.186;0.276;2023-04-01T03:08:19;3.72;;;2.67;;
64738;SDS011;51175;51.186;0.276;2023-04-01T03:08:49;3.17;;;2.70;;
64738;SDS011;51175;51.186;0.276;2023-04-01T03:09:20;2.65;;;2.38;;
64738;SDS011;51175;51.186;0.276;2023-04-01T03:09:50;4.55;;;2.80;;
64738;SDS011;51175;51.186;0.276;2023-04-01T03:10:20;3.33;;;2.97;;
64738;SDS011;51175;51.186;0.276;2023-04-01T03:10:51;5.35;;;3.20;;
64738;SDS011;51175;51.186;0.276;2023-04-01T03:11:21;3.10;;;2.60;;
64738;SDS011;51175;51.186;0.276;2023-04-01T03:11:52;3.75;;;2.80;;
64738;SDS011;51175;51.186;0.276;2023-04-01T03:12:22;4.28;;;2.88;;
64738;SDS011;51175;51.186;0.276;2023-04-01T03:12:52;3.50;;;2.40;;
64738;SDS011;51175;51.186;0.276;2023-04-01T03:13:23;3.60;;;2.38;;
64738;SDS011;51175;51.186;0.276;2023-04-01T03:13:53;2.63;;;2.08;;
64738;SDS011;51175;51.186;0.276;2023-04-01T03:14:23;4.30;;;3.15;;
64738;SDS011;51175;51.186;0.276;2023-04-01T03:14:54;3.97;;;2.53;;
64738;SDS011;51175;51.186;0.276;2023-04-01T03:15:24;2.70;;;2.30;;
64738;SDS011;51175;51.186;0.276;2023-04-01T03:15:55;2.60;;;2.33;;
64738;SDS011;51175;51.186;0.276;2023-04-01T03:16:25;3.35;;;2.65;;
64738;SDS011;51175;51.186;0.276;2023-04-01T03:16:55;3.17;;;2.88;;
64738;SDS011;51175;51.186;0.276;2023-04-01T03:17:26;2.47;;;2.00;;
64738;SDS011;51175;51.186;0.276;2023-04-01T03:17:56;3.28;;;2.58;;
64738;SDS011;51175;51.186;0.276;2023-04-01T03:18:27;3.47;;;2.97;;
64738;SDS011;51175;51.186;0.276;2023-04-01T03:18:57;3.03;;;2.58;;
64738;SDS011;51175;51.186;0.276;2023-04-01T03:19:29;3.33;;;2.30;;
64738;SDS011;51175;51.186;0.276;2023-04-01T03:20:00;4.18;;;2.25;;
64738;SDS011;51175;51.186;0.276;2023-04-01T03:20:30;2.75;;;1.98;;
64738;SDS011;51175;51.186;0.276;2023-04-01T03:21:16;3.53;;;2.03;;
64738;SDS011;51175;51.186;0.276;2023-04-01T03:21:48;3.33;;;2.33;;
64738;SDS011;51175;51.186;0.276;2023-04-01T03:22:18;3.42;;;2.63;;
64738;SDS011;51175;51.186;0.276;2023-04-01T03:22:50;2.55;;;2.35;;
64738;SDS011;51175;51.186;0.276;2023-04-01T03:23:21;2.67;;;2.00;;
64738;SDS011;51175;51.186;0.276;2023-04-01T03:23:51;3.67;;;2.33;;
64738;SDS011;51175;51.186;0.276;2023-04-01T03:24:22;2.60;;;1.75;;
64738;SDS011;51175;51.186;0.276;2023-04-01T03:24:52;2.75;;;2.20;;
64738;SDS011;51175;51.186;0.276;2023-04-01T03:25:23;3.00;;;2.35;;
64738;SDS011;51175;51.186;0.276;2023-04-01T03:25:53;2.38;;;1.92;;
64738;SDS011;51175;51.186;0.276;2023-04-01T03:26:23;3.53;;;2.03;;
64738;SDS011;51175;51.186;0.276;2023-04-01T03:26:54;3.92;;;2.10;;
64738;SDS011;51175;51.186;0.276;2023-04-01T03:27:24;3.72;;;1.90;;
64738;SDS011;51175;51.186;0.276;2023-04-01T03:27:55;3.00;;;2.00;;
64738;SDS011;51175;51.186;0.276;2023-04-01T03:28:25;3.47;;;2.05;;
64738;SDS011;51175;51.186;0.276;2023-04-01T03:28:55;2.30;;;2.00;;
64738;SDS011;51175;51.186;0.276;2023-04-01T03:29:26;2.83;;;2.13;;
64738;SDS011;51175;51.186;0.276;2023-04-01T03:29:56;2.67;;;1.80;;
64738;SDS011;51175;51.186;0.276;2023-04-01T03:30:26;1.70;;;1.60;;
64738;SDS011;51175;51.186;0.276;2023-04-01T03:30:57;3.45;;;1.75;;
64738;SDS011;51175;51.186;0.276;2023-04-01T03:31:28;2.38;;;2.08;;
64738;SDS011;51175;51.186;0.276;2023-04-01T03:31:58;3.10;;;2.30;;
64738;SDS011;51175;51.186;0.276;2023-04-01T03:32:28;4.60;;;2.17;;
64738;SDS011;51175;51.186;0.276;2023-04-01T03:32:59;5.10;;;2.03;;
64738;SDS011;51175;51.186;0.276;2023-04-01T03:33:30;2.42;;;1.65;;
64738;SDS011;51175;51.186;0.276;2023-04-01T03:34:01;2.30;;;1.83;;
64738;SDS011;51175;51.186;0.276;2023-04-01T03:34:31;2.53;;;1.85;;
64738;SDS011;51175;51.186;0.276;2023-04-01T03:35:02;2.97;;;1.80;;
64738;SDS011;51175;51.186;0.276;2023-04-01T03:35:33;1.52;;;1.20;;
64738;SDS011;51175;51.186;0.276;2023-04-01T03:36:05;2.80;;;1.67;;
64738;SDS011;51175;51.186;0.276;2023-04-01T03:36:36;2.45;;;1.75;;
64738;SDS011;51175;51.186;0.276;2023-04-01T03:37:06;2.92;;;1.67;;
64738;SDS011;51175;51.186;0.276;2023-04-01T03:37:37;2.58;;;1.80;;
64738;SDS011;51175;51.186;0.276;2023-04-01T03:38:07;2.67;;;1.60;;
64738;SDS011;51175;51.186;0.276;2023-04-01T03:38:39;2.13;;;1.80;;
64738;SDS011;51175;51.186;0.276;2023-04-01T03:39:11;3.30;;;2.03;;
64738;SDS011;51175;51.186;0.276;2023-04-01T03:39:42;2.60;;;1.60;;